Terminal Aerodrome Forecast
Issued by NWS

Home | Current Version | Previous Version | Text Only | Print | Product List | Glossary On
Versions: 1 2 3 4 5 6 7 8 9 10 11 12 13 14
000
FTUS45 KABQ 281739
TAFAEG
TAF
KAEG 281739Z 2818/2918 33012G18KT P6SM -SHRA OVC020
      TEMPO 2819/2823 -SHRA SCT010 BKN030
     FM290200 01008KT P6SM VCSH BKN030
      TEMPO 2903/2906 4SM BR OVC003
     FM290600 36005KT 3SM HZ OVC025
     FM291200 32011KT 6SM -SHRA OVC015=

USA.gov is the U.S. government's official web portal to all federal, state and local government web resources and services.